Fort Smith, AR

9:57 PM CST on December 17, 2014 (GMT -0600)
Stigler | Change Station
CLOSE
Current Station
Airport
Location: Stigler,
Elevation: 600 ft
Nearby Weather Stations

Elev 600 ft 35.29 °N, 95.09 °W | Updated 42 minutes ago

Rain
Rain
36 °F
Feels Like 30 °F
N
7
Wind Variable Wind from ESE

Today
High -- | Low -- °F
--% Chance of Precip.
Yesterday
High -- | Low -- °F
Precip. -- in
7:20 AM 5:07 PM
Waning Crescent, 17% visible
Pressure 30.21 in
Visibility 8.0 miles
Clouds Mostly Cloudy 4400 ft
Overcast 5000 ft
Windchill 30 °F
Dew Point 34 °F
Humidity 93%
Rainfall 1.09 in
Snow Depth Not available.
UV 0 out of 12
Pollen 3.90 out of 12
Air Quality Not available.
Flu Activity Not available.
METAR KGZL 180315Z AUTO 11006KT 8SM BKN044 OVC050 02/01 A3021 RMK AO2

More Conditions Fewer Conditions

Pressure 30.21 in
Visibility 8.0 miles
Clouds Mostly Cloudy 4400 ft
Overcast 5000 ft
Windchill 30 °F
Dew Point 34 °F
Humidity 93%
Rainfall 1.09 in
Snow Depth Not available.
UV 0 out of 12
Pollen 3.90 out of 12
Air Quality Not available.
Flu Activity Not available.
METAR KGZL 180315Z AUTO 11006KT 8SM BKN044 OVC050 02/01 A3021 RMK AO2

More Conditions Fewer Conditions

Nowcast | as of 9:23 PM CST on December 17, 2014

At 9:23 PM...National Weather Service Doppler radars continued to detect a large area of light to moderate precipitation moving across far eastern Oklahoma and western Arkansas. A wintry mix was falling along and north of Highway 412...where temperatures were near freezing. The back edge of the precipitation was pushing into eastern Oklahoma...and extended from near Jay...south to Antlers. This line will continue to shift toward the east...ending the precipitation from west to east. Areas of drizzle and freezing drizzle...however...will remain possible behind this line. Through 11:00 PM...widespread light to moderate precipitation will persist across far eastern portions of the forecast area. A wintry mix will remain possible across northern portions of the area...mainly along and north of Highway 412. Little to no snow or sleet accumulation is expected as surface and roadway temperatures are at or above freezing. Hourly rainfall amounts will generally be a tenth of an inch or less.

×

10-Day Weather Forecast

Almanac

Astronomy

Dec. 17, 2014 Rise Set
Actual Time
Civil Twilight
Nautical Twilight
Astronomical Twilight
Moon
Length of Visible Light
Length of Day
Tomorrow will be .
, % of the Moon is Illuminated

Today's Extremes

State Highs State Lows

Community

WunderPhotos

Upload Photos

1,778,879 photos uploaded!

WunderBlogs® & News

Nearby

Air Quality

  Air Quality AQ Index Pollutant
Not available.

Snow Depth

Station Depth Elevation

Earthquake Activity

City Distance Mag. Time & Date
Minimum magnitude displayed is 2.5.

Coastal Water Temperatures

Place Temperature

Nearby Weather Stations